sensor_id;sensor_type;location;lat;lon;timestamp;P1;durP1;ratioP1;P2;durP2;ratioP2
38379;SDS011;38377;47.418;18.882;2023-08-12T00:00:41;5.30;;;4.88;;
38379;SDS011;38377;47.418;18.882;2023-08-12T00:03:07;5.47;;;4.90;;
38379;SDS011;38377;47.418;18.882;2023-08-12T00:05:33;5.90;;;4.75;;
38379;SDS011;38377;47.418;18.882;2023-08-12T00:08:00;5.45;;;4.95;;
38379;SDS011;38377;47.418;18.882;2023-08-12T00:10:26;5.60;;;5.10;;
38379;SDS011;38377;47.418;18.882;2023-08-12T00:12:52;5.63;;;5.00;;
38379;SDS011;38377;47.418;18.882;2023-08-12T00:15:18;5.00;;;4.60;;
38379;SDS011;38377;47.418;18.882;2023-08-12T00:17:43;5.38;;;4.88;;
38379;SDS011;38377;47.418;18.882;2023-08-12T00:20:27;4.75;;;4.35;;
38379;SDS011;38377;47.418;18.882;2023-08-12T00:22:52;6.32;;;4.90;;
38379;SDS011;38377;47.418;18.882;2023-08-12T00:25:18;4.90;;;4.50;;
38379;SDS011;38377;47.418;18.882;2023-08-12T00:27:44;5.35;;;4.85;;
38379;SDS011;38377;47.418;18.882;2023-08-12T00:30:10;5.28;;;4.78;;
38379;SDS011;38377;47.418;18.882;2023-08-12T00:32:41;5.63;;;5.13;;
38379;SDS011;38377;47.418;18.882;2023-08-12T00:35:06;5.60;;;5.00;;
38379;SDS011;38377;47.418;18.882;2023-08-12T00:37:32;6.53;;;5.15;;
38379;SDS011;38377;47.418;18.882;2023-08-12T00:39:58;5.82;;;5.25;;
38379;SDS011;38377;47.418;18.882;2023-08-12T00:42:24;5.40;;;4.90;;
38379;SDS011;38377;47.418;18.882;2023-08-12T00:44:49;5.93;;;5.00;;
38379;SDS011;38377;47.418;18.882;2023-08-12T00:47:15;6.15;;;4.50;;
38379;SDS011;38377;47.418;18.882;2023-08-12T00:49:41;5.28;;;4.75;;
38379;SDS011;38377;47.418;18.882;2023-08-12T00:52:10;5.65;;;5.15;;
38379;SDS011;38377;47.418;18.882;2023-08-12T00:54:40;6.33;;;4.93;;
38379;SDS011;38377;47.418;18.882;2023-08-12T00:57:06;6.00;;;5.50;;
38379;SDS011;38377;47.418;18.882;2023-08-12T00:59:33;5.72;;;5.10;;
38379;SDS011;38377;47.418;18.882;2023-08-12T01:02:01;5.57;;;5.07;;
38379;SDS011;38377;47.418;18.882;2023-08-12T01:04:27;5.57;;;5.07;;
38379;SDS011;38377;47.418;18.882;2023-08-12T01:06:52;5.72;;;5.32;;
38379;SDS011;38377;47.418;18.882;2023-08-12T01:09:18;5.38;;;4.88;;
38379;SDS011;38377;47.418;18.882;2023-08-12T01:14:25;6.70;;;5.90;;
38379;SDS011;38377;47.418;18.882;2023-08-12T01:17:02;5.97;;;5.28;;
38379;SDS011;38377;47.418;18.882;2023-08-12T01:19:34;5.65;;;5.15;;
38379;SDS011;38377;47.418;18.882;2023-08-12T01:22:06;6.20;;;5.15;;
38379;SDS011;38377;47.418;18.882;2023-08-12T01:24:40;6.32;;;5.68;;
38379;SDS011;38377;47.418;18.882;2023-08-12T01:27:08;5.55;;;5.10;;
38379;SDS011;38377;47.418;18.882;2023-08-12T01:29:36;6.10;;;5.50;;
38379;SDS011;38377;47.418;18.882;2023-08-12T01:37:44;5.65;;;5.18;;
38379;SDS011;38377;47.418;18.882;2023-08-12T01:40:10;5.70;;;5.20;;
38379;SDS011;38377;47.418;18.882;2023-08-12T01:42:38;5.45;;;4.95;;
38379;SDS011;38377;47.418;18.882;2023-08-12T01:45:05;5.72;;;5.20;;
38379;SDS011;38377;47.418;18.882;2023-08-12T01:47:31;6.55;;;5.20;;
38379;SDS011;38377;47.418;18.882;2023-08-12T01:49:57;6.07;;;5.57;;
38379;SDS011;38377;47.418;18.882;2023-08-12T01:52:24;5.30;;;4.90;;
38379;SDS011;38377;47.418;18.882;2023-08-12T01:54:50;6.40;;;5.80;;
38379;SDS011;38377;47.418;18.882;2023-08-12T01:57:16;6.07;;;5.47;;
38379;SDS011;38377;47.418;18.882;2023-08-12T01:59:42;6.32;;;5.75;;
38379;SDS011;38377;47.418;18.882;2023-08-12T02:02:11;6.38;;;5.63;;
38379;SDS011;38377;47.418;18.882;2023-08-12T02:04:36;6.13;;;5.53;;
38379;SDS011;38377;47.418;18.882;2023-08-12T02:07:03;5.88;;;5.38;;
38379;SDS011;38377;47.418;18.882;2023-08-12T02:09:29;6.07;;;5.50;;
38379;SDS011;38377;47.418;18.882;2023-08-12T02:11:55;5.70;;;5.20;;
38379;SDS011;38377;47.418;18.882;2023-08-12T02:14:21;6.07;;;5.50;;
38379;SDS011;38377;47.418;18.882;2023-08-12T02:16:47;9.43;;;6.00;;
38379;SDS011;38377;47.418;18.882;2023-08-12T02:19:13;7.22;;;6.28;;
38379;SDS011;38377;47.418;18.882;2023-08-12T02:21:39;6.32;;;5.72;;
38379;SDS011;38377;47.418;18.882;2023-08-12T02:24:04;5.22;;;4.72;;
38379;SDS011;38377;47.418;18.882;2023-08-12T02:26:30;4.63;;;4.22;;
38379;SDS011;38377;47.418;18.882;2023-08-12T02:28:56;4.55;;;4.15;;
38379;SDS011;38377;47.418;18.882;2023-08-12T02:31:22;4.10;;;3.78;;
38379;SDS011;38377;47.418;18.882;2023-08-12T02:33:47;4.28;;;3.92;;
38379;SDS011;38377;47.418;18.882;2023-08-12T02:36:14;4.38;;;3.92;;
38379;SDS011;38377;47.418;18.882;2023-08-12T02:38:40;4.93;;;4.13;;
38379;SDS011;38377;47.418;18.882;2023-08-12T02:41:06;5.57;;;4.68;;
38379;SDS011;38377;47.418;18.882;2023-08-12T02:43:31;6.60;;;3.75;;
38379;SDS011;38377;47.418;18.882;2023-08-12T02:45:57;4.97;;;4.32;;
38379;SDS011;38377;47.418;18.882;2023-08-12T02:48:23;5.72;;;4.28;;
38379;SDS011;38377;47.418;18.882;2023-08-12T02:50:48;4.63;;;3.67;;
38379;SDS011;38377;47.418;18.882;2023-08-12T02:53:15;5.28;;;4.78;;
38379;SDS011;38377;47.418;18.882;2023-08-12T02:55:40;4.72;;;4.32;;
38379;SDS011;38377;47.418;18.882;2023-08-12T03:00:45;4.93;;;4.47;;
38379;SDS011;38377;47.418;18.882;2023-08-12T03:05:42;5.88;;;4.88;;
38379;SDS011;38377;47.418;18.882;2023-08-12T03:08:11;7.72;;;5.40;;
38379;SDS011;38377;47.418;18.882;2023-08-12T03:10:38;7.22;;;5.38;;
38379;SDS011;38377;47.418;18.882;2023-08-12T03:13:04;6.18;;;5.50;;
38379;SDS011;38377;47.418;18.882;2023-08-12T03:15:30;6.10;;;5.50;;
38379;SDS011;38377;47.418;18.882;2023-08-12T03:17:56;8.00;;;5.60;;
38379;SDS011;38377;47.418;18.882;2023-08-12T03:20:22;6.22;;;5.65;;
38379;SDS011;38377;47.418;18.882;2023-08-12T03:22:47;6.50;;;5.90;;
38379;SDS011;38377;47.418;18.882;2023-08-12T03:25:13;6.72;;;6.13;;
38379;SDS011;38377;47.418;18.882;2023-08-12T03:27:42;6.93;;;6.22;;
38379;SDS011;38377;47.418;18.882;2023-08-12T03:30:08;7.75;;;7.05;;
38379;SDS011;38377;47.418;18.882;2023-08-12T03:32:39;7.28;;;6.55;;
38379;SDS011;38377;47.418;18.882;2023-08-12T03:35:05;6.70;;;6.10;;
38379;SDS011;38377;47.418;18.882;2023-08-12T03:37:31;7.85;;;6.90;;
38379;SDS011;38377;47.418;18.882;2023-08-12T03:39:56;7.05;;;6.45;;
38379;SDS011;38377;47.418;18.882;2023-08-12T03:42:22;7.57;;;6.88;;
38379;SDS011;38377;47.418;18.882;2023-08-12T03:44:48;9.07;;;7.05;;
38379;SDS011;38377;47.418;18.882;2023-08-12T03:47:13;8.02;;;7.32;;
38379;SDS011;38377;47.418;18.882;2023-08-12T03:49:39;7.88;;;7.18;;
38379;SDS011;38377;47.418;18.882;2023-08-12T03:52:05;7.90;;;7.20;;
38379;SDS011;38377;47.418;18.882;2023-08-12T03:54:33;7.45;;;6.75;;
38379;SDS011;38377;47.418;18.882;2023-08-12T03:56:59;8.85;;;7.75;;
38379;SDS011;38377;47.418;18.882;2023-08-12T03:59:30;8.05;;;7.35;;
38379;SDS011;38377;47.418;18.882;2023-08-12T04:04:24;7.32;;;6.72;;
38379;SDS011;38377;47.418;18.882;2023-08-12T04:06:50;8.57;;;7.60;;
38379;SDS011;38377;47.418;18.882;2023-08-12T04:09:17;7.95;;;7.25;;
38379;SDS011;38377;47.418;18.882;2023-08-12T04:11:43;8.05;;;7.25;;
38379;SDS011;38377;47.418;18.882;2023-08-12T04:14:09;7.80;;;7.10;;
38379;SDS011;38377;47.418;18.882;2023-08-12T04:16:35;8.32;;;7.53;;
38379;SDS011;38377;47.418;18.882;2023-08-12T04:19:06;8.45;;;7.75;;
38379;SDS011;38377;47.418;18.882;2023-08-12T04:21:31;8.18;;;7.38;;
38379;SDS011;38377;47.418;18.882;2023-08-12T04:23:57;8.20;;;7.50;;
38379;SDS011;38377;47.418;18.882;2023-08-12T04:26:23;8.32;;;7.53;;
38379;SDS011;38377;47.418;18.882;2023-08-12T04:28:48;9.52;;;8.00;;
38379;SDS011;38377;47.418;18.882;2023-08-12T04:31:16;8.90;;;8.00;;
38379;SDS011;38377;47.418;18.882;2023-08-12T04:33:42;8.40;;;7.60;;
38379;SDS011;38377;47.418;18.882;2023-08-12T04:36:08;8.90;;;8.02;;
38379;SDS011;38377;47.418;18.882;2023-08-12T04:38:33;7.57;;;6.97;;
38379;SDS011;38377;47.418;18.882;2023-08-12T04:41:00;8.48;;;7.20;;
38379;SDS011;38377;47.418;18.882;2023-08-12T04:43:26;8.35;;;7.55;;
38379;SDS011;38377;47.418;18.882;2023-08-12T04:45:52;7.50;;;6.82;;
38379;SDS011;38377;47.418;18.882;2023-08-12T04:48:17;7.03;;;6.43;;
38379;SDS011;38377;47.418;18.882;2023-08-12T04:50:43;6.55;;;6.05;;
38379;SDS011;38377;47.418;18.882;2023-08-12T04:53:11;7.10;;;6.35;;
38379;SDS011;38377;47.418;18.882;2023-08-12T04:55:37;6.88;;;6.15;;
38379;SDS011;38377;47.418;18.882;2023-08-12T04:58:03;8.07;;;6.55;;
38379;SDS011;38377;47.418;18.882;2023-08-12T05:00:29;6.85;;;6.25;;
38379;SDS011;38377;47.418;18.882;2023-08-12T05:02:57;7.32;;;6.68;;
38379;SDS011;38377;47.418;18.882;2023-08-12T05:05:23;7.68;;;6.97;;
38379;SDS011;38377;47.418;18.882;2023-08-12T05:07:50;7.28;;;6.57;;
38379;SDS011;38377;47.418;18.882;2023-08-12T05:10:16;6.60;;;5.90;;
38379;SDS011;38377;47.418;18.882;2023-08-12T05:12:43;6.13;;;5.53;;
38379;SDS011;38377;47.418;18.882;2023-08-12T05:15:10;5.70;;;5.20;;
38379;SDS011;38377;47.418;18.882;2023-08-12T05:17:36;5.40;;;4.90;;
38379;SDS011;38377;47.418;18.882;2023-08-12T05:20:02;4.90;;;4.50;;
38379;SDS011;38377;47.418;18.882;2023-08-12T05:22:28;4.50;;;4.03;;
38379;SDS011;38377;47.418;18.882;2023-08-12T05:24:54;5.38;;;4.00;;
38379;SDS011;38377;47.418;18.882;2023-08-12T05:27:20;4.45;;;3.80;;
38379;SDS011;38377;47.418;18.882;2023-08-12T05:29:46;4.00;;;3.50;;
38379;SDS011;38377;47.418;18.882;2023-08-12T05:32:11;4.68;;;3.45;;
38379;SDS011;38377;47.418;18.882;2023-08-12T05:34:37;4.03;;;3.58;;
38379;SDS011;38377;47.418;18.882;2023-08-12T05:37:06;5.95;;;3.63;;
38379;SDS011;38377;47.418;18.882;2023-08-12T05:39:31;4.72;;;3.08;;
38379;SDS011;38377;47.418;18.882;2023-08-12T05:41:57;5.05;;;3.40;;
38379;SDS011;38377;47.418;18.882;2023-08-12T05:44:23;6.07;;;3.45;;
38379;SDS011;38377;47.418;18.882;2023-08-12T05:46:48;3.50;;;3.00;;
38379;SDS011;38377;47.418;18.882;2023-08-12T05:49:14;4.57;;;3.10;;
38379;SDS011;38377;47.418;18.882;2023-08-12T05:51:40;6.60;;;2.92;;
38379;SDS011;38377;47.418;18.882;2023-08-12T05:54:06;4.15;;;3.15;;
38379;SDS011;38377;47.418;18.882;2023-08-12T05:56:32;4.55;;;3.28;;
38379;SDS011;38377;47.418;18.882;2023-08-12T05:58:58;3.97;;;2.85;;
38379;SDS011;38377;47.418;18.882;2023-08-12T06:01:23;5.88;;;2.80;;
38379;SDS011;38377;47.418;18.882;2023-08-12T06:03:49;5.53;;;2.83;;
38379;SDS011;38377;47.418;18.882;2023-08-12T06:06:15;3.55;;;2.75;;
38379;SDS011;38377;47.418;18.882;2023-08-12T06:08:41;2.83;;;2.35;;
38379;SDS011;38377;47.418;18.882;2023-08-12T06:11:06;5.72;;;2.55;;
38379;SDS011;38377;47.418;18.882;2023-08-12T06:13:32;5.78;;;2.83;;
38379;SDS011;38377;47.418;18.882;2023-08-12T06:15:58;3.42;;;2.53;;
38379;SDS011;38377;47.418;18.882;2023-08-12T06:18:23;5.38;;;2.95;;
38379;SDS011;38377;47.418;18.882;2023-08-12T06:20:49;3.50;;;2.67;;
38379;SDS011;38377;47.418;18.882;2023-08-12T06:23:15;3.85;;;2.20;;
38379;SDS011;38377;47.418;18.882;2023-08-12T06:25:41;3.25;;;2.47;;
38379;SDS011;38377;47.418;18.882;2023-08-12T06:28:08;5.28;;;2.60;;
38379;SDS011;38377;47.418;18.882;2023-08-12T06:30:35;3.78;;;2.28;;
38379;SDS011;38377;47.418;18.882;2023-08-12T06:33:01;3.92;;;2.25;;
38379;SDS011;38377;47.418;18.882;2023-08-12T06:35:26;3.63;;;2.13;;
38379;SDS011;38377;47.418;18.882;2023-08-12T06:37:52;3.47;;;2.30;;
38379;SDS011;38377;47.418;18.882;2023-08-12T06:40:18;3.05;;;2.40;;
38379;SDS011;38377;47.418;18.882;2023-08-12T06:42:44;5.72;;;2.58;;
38379;SDS011;38377;47.418;18.882;2023-08-12T06:45:10;4.00;;;2.28;;
38379;SDS011;38377;47.418;18.882;2023-08-12T06:47:35;2.97;;;2.60;;
38379;SDS011;38377;47.418;18.882;2023-08-12T06:50:01;3.78;;;2.42;;
38379;SDS011;38377;47.418;18.882;2023-08-12T06:52:27;3.38;;;2.28;;
38379;SDS011;38377;47.418;18.882;2023-08-12T06:54:52;2.92;;;2.38;;
38379;SDS011;38377;47.418;18.882;2023-08-12T06:57:18;3.03;;;1.98;;
38379;SDS011;38377;47.418;18.882;2023-08-12T06:59:44;2.50;;;2.05;;
38379;SDS011;38377;47.418;18.882;2023-08-12T07:02:10;2.67;;;2.08;;
38379;SDS011;38377;47.418;18.882;2023-08-12T07:04:35;4.10;;;2.42;;
38379;SDS011;38377;47.418;18.882;2023-08-12T07:07:01;2.95;;;2.42;;
38379;SDS011;38377;47.418;18.882;2023-08-12T07:09:27;4.97;;;2.50;;
38379;SDS011;38377;47.418;18.882;2023-08-12T07:11:52;3.90;;;2.95;;
38379;SDS011;38377;47.418;18.882;2023-08-12T07:14:18;4.40;;;2.63;;
38379;SDS011;38377;47.418;18.882;2023-08-12T07:16:44;3.42;;;2.63;;
38379;SDS011;38377;47.418;18.882;2023-08-12T07:19:10;3.40;;;2.50;;
38379;SDS011;38377;47.418;18.882;2023-08-12T07:21:36;2.60;;;2.38;;
38379;SDS011;38377;47.418;18.882;2023-08-12T07:24:02;5.80;;;3.05;;
38379;SDS011;38377;47.418;18.882;2023-08-12T07:26:28;3.70;;;2.40;;
38379;SDS011;38377;47.418;18.882;2023-08-12T07:28:53;4.38;;;2.83;;
38379;SDS011;38377;47.418;18.882;2023-08-12T07:31:19;5.00;;;3.40;;
38379;SDS011;38377;47.418;18.882;2023-08-12T07:33:52;4.78;;;3.45;;
38379;SDS011;38377;47.418;18.882;2023-08-12T07:36:18;6.85;;;3.60;;
38379;SDS011;38377;47.418;18.882;2023-08-12T07:38:43;8.43;;;4.05;;
38379;SDS011;38377;47.418;18.882;2023-08-12T07:41:09;5.10;;;3.33;;
38379;SDS011;38377;47.418;18.882;2023-08-12T07:43:35;4.43;;;3.50;;
38379;SDS011;38377;47.418;18.882;2023-08-12T07:46:00;4.82;;;3.75;;
38379;SDS011;38377;47.418;18.882;2023-08-12T07:48:26;5.18;;;3.03;;
38379;SDS011;38377;47.418;18.882;2023-08-12T07:50:58;6.05;;;3.92;;
38379;SDS011;38377;47.418;18.882;2023-08-12T07:53:24;4.97;;;3.25;;
38379;SDS011;38377;47.418;18.882;2023-08-12T07:55:50;5.35;;;3.42;;
38379;SDS011;38377;47.418;18.882;2023-08-12T07:58:16;3.80;;;3.45;;
38379;SDS011;38377;47.418;18.882;2023-08-12T08:00:42;4.82;;;4.00;;
38379;SDS011;38377;47.418;18.882;2023-08-12T08:03:08;5.18;;;3.88;;
38379;SDS011;38377;47.418;18.882;2023-08-12T08:05:34;4.80;;;3.80;;
38379;SDS011;38377;47.418;18.882;2023-08-12T08:07:59;6.07;;;3.30;;
38379;SDS011;38377;47.418;18.882;2023-08-12T08:10:25;3.78;;;3.08;;
38379;SDS011;38377;47.418;18.882;2023-08-12T08:12:51;6.20;;;3.33;;
38379;SDS011;38377;47.418;18.882;2023-08-12T08:15:17;5.13;;;3.20;;
38379;SDS011;38377;47.418;18.882;2023-08-12T08:17:42;4.70;;;3.20;;
38379;SDS011;38377;47.418;18.882;2023-08-12T08:20:08;4.93;;;3.50;;
38379;SDS011;38377;47.418;18.882;2023-08-12T08:22:35;4.18;;;3.47;;
38379;SDS011;38377;47.418;18.882;2023-08-12T08:25:01;5.82;;;3.22;;
38379;SDS011;38377;47.418;18.882;2023-08-12T08:27:32;4.78;;;3.45;;
38379;SDS011;38377;47.418;18.882;2023-08-12T08:29:58;5.55;;;3.13;;
38379;SDS011;38377;47.418;18.882;2023-08-12T08:32:23;4.82;;;3.13;;
38379;SDS011;38377;47.418;18.882;2023-08-12T08:34:50;5.20;;;2.83;;
38379;SDS011;38377;47.418;18.882;2023-08-12T08:37:16;5.65;;;2.90;;
38379;SDS011;38377;47.418;18.882;2023-08-12T08:39:42;6.07;;;3.70;;
38379;SDS011;38377;47.418;18.882;2023-08-12T08:42:07;9.75;;;3.78;;
38379;SDS011;38377;47.418;18.882;2023-08-12T08:44:36;3.97;;;3.17;;
38379;SDS011;38377;47.418;18.882;2023-08-12T08:47:09;4.25;;;3.47;;
38379;SDS011;38377;47.418;18.882;2023-08-12T08:49:35;2.90;;;2.60;;
38379;SDS011;38377;47.418;18.882;2023-08-12T08:52:01;4.00;;;3.05;;
38379;SDS011;38377;47.418;18.882;2023-08-12T08:54:27;5.72;;;3.60;;
38379;SDS011;38377;47.418;18.882;2023-08-12T08:56:53;5.75;;;3.35;;
38379;SDS011;38377;47.418;18.882;2023-08-12T08:59:19;3.90;;;3.17;;
38379;SDS011;38377;47.418;18.882;2023-08-12T09:01:46;4.75;;;2.72;;
38379;SDS011;38377;47.418;18.882;2023-08-12T09:04:16;3.92;;;3.30;;
38379;SDS011;38377;47.418;18.882;2023-08-12T09:06:43;3.47;;;3.17;;
38379;SDS011;38377;47.418;18.882;2023-08-12T09:09:10;3.40;;;2.70;;
38379;SDS011;38377;47.418;18.882;2023-08-12T09:11:39;6.03;;;2.92;;
38379;SDS011;38377;47.418;18.882;2023-08-12T09:14:09;4.75;;;2.78;;
38379;SDS011;38377;47.418;18.882;2023-08-12T09:16:35;3.70;;;2.60;;
38379;SDS011;38377;47.418;18.882;2023-08-12T09:19:01;2.83;;;2.63;;
38379;SDS011;38377;47.418;18.882;2023-08-12T09:21:26;2.60;;;2.40;;
38379;SDS011;38377;47.418;18.882;2023-08-12T09:23:52;3.80;;;2.40;;
38379;SDS011;38377;47.418;18.882;2023-08-12T09:26:19;4.65;;;2.95;;
38379;SDS011;38377;47.418;18.882;2023-08-12T09:28:46;3.80;;;2.47;;
38379;SDS011;38377;47.418;18.882;2023-08-12T09:31:25;2.15;;;1.92;;
38379;SDS011;38377;47.418;18.882;2023-08-12T09:36:22;10.88;;;3.30;;
38379;SDS011;38377;47.418;18.882;2023-08-12T09:38:48;6.30;;;2.85;;
38379;SDS011;38377;47.418;18.882;2023-08-12T09:41:14;4.65;;;2.97;;
38379;SDS011;38377;47.418;18.882;2023-08-12T09:43:44;4.20;;;2.80;;
38379;SDS011;38377;47.418;18.882;2023-08-12T09:46:12;7.68;;;3.17;;
38379;SDS011;38377;47.418;18.882;2023-08-12T09:48:41;5.50;;;2.70;;
38379;SDS011;38377;47.418;18.882;2023-08-12T09:51:07;2.60;;;2.40;;
38379;SDS011;38377;47.418;18.882;2023-08-12T09:53:35;3.88;;;2.50;;
38379;SDS011;38377;47.418;18.882;2023-08-12T09:56:05;3.05;;;2.42;;
38379;SDS011;38377;47.418;18.882;2023-08-12T09:58:35;2.60;;;2.40;;
38379;SDS011;38377;47.418;18.882;2023-08-12T10:01:02;5.25;;;2.45;;
38379;SDS011;38377;47.418;18.882;2023-08-12T10:06:00;3.70;;;2.25;;
38379;SDS011;38377;47.418;18.882;2023-08-12T10:08:28;3.15;;;2.47;;
38379;SDS011;38377;47.418;18.882;2023-08-12T10:10:54;4.47;;;2.85;;
38379;SDS011;38377;47.418;18.882;2023-08-12T10:13:23;3.28;;;2.40;;
38379;SDS011;38377;47.418;18.882;2023-08-12T10:15:49;5.97;;;2.25;;
38379;SDS011;38377;47.418;18.882;2023-08-12T10:18:15;4.22;;;2.90;;
38379;SDS011;38377;47.418;18.882;2023-08-12T10:20:43;5.45;;;2.60;;
38379;SDS011;38377;47.418;18.882;2023-08-12T10:23:12;4.25;;;2.13;;
38379;SDS011;38377;47.418;18.882;2023-08-12T10:25:40;3.92;;;2.40;;
38379;SDS011;38377;47.418;18.882;2023-08-12T10:28:08;2.90;;;2.53;;
38379;SDS011;38377;47.418;18.882;2023-08-12T10:30:34;2.40;;;2.20;;
38379;SDS011;38377;47.418;18.882;2023-08-12T10:33:00;3.03;;;2.10;;
38379;SDS011;38377;47.418;18.882;2023-08-12T10:35:40;3.70;;;2.60;;
38379;SDS011;38377;47.418;18.882;2023-08-12T10:38:11;3.75;;;2.25;;
38379;SDS011;38377;47.418;18.882;2023-08-12T10:40:44;5.07;;;2.33;;
38379;SDS011;38377;47.418;18.882;2023-08-12T10:43:11;2.85;;;2.55;;
38379;SDS011;38377;47.418;18.882;2023-08-12T10:45:42;2.67;;;2.47;;
38379;SDS011;38377;47.418;18.882;2023-08-12T10:48:23;4.95;;;2.53;;
38379;SDS011;38377;47.418;18.882;2023-08-12T10:50:53;3.35;;;2.42;;
38379;SDS011;38377;47.418;18.882;2023-08-12T10:53:24;4.07;;;2.28;;
38379;SDS011;38377;47.418;18.882;2023-08-12T10:55:56;4.47;;;2.70;;
38379;SDS011;38377;47.418;18.882;2023-08-12T10:58:27;3.28;;;2.38;;
38379;SDS011;38377;47.418;18.882;2023-08-12T11:00:59;3.95;;;2.78;;
38379;SDS011;38377;47.418;18.882;2023-08-12T11:03:25;3.85;;;2.35;;
38379;SDS011;38377;47.418;18.882;2023-08-12T11:05:52;2.72;;;2.47;;
38379;SDS011;38377;47.418;18.882;2023-08-12T11:08:24;2.75;;;2.53;;
38379;SDS011;38377;47.418;18.882;2023-08-12T11:10:52;5.03;;;2.67;;
38379;SDS011;38377;47.418;18.882;2023-08-12T11:13:20;2.60;;;2.40;;
38379;SDS011;38377;47.418;18.882;2023-08-12T11:15:47;2.78;;;2.50;;
38379;SDS011;38377;47.418;18.882;2023-08-12T11:18:13;3.78;;;2.40;;
38379;SDS011;38377;47.418;18.882;2023-08-12T11:20:41;3.35;;;2.30;;
38379;SDS011;38377;47.418;18.882;2023-08-12T11:23:08;2.63;;;2.38;;
38379;SDS011;38377;47.418;18.882;2023-08-12T11:25:34;4.82;;;2.45;;
38379;SDS011;38377;47.418;18.882;2023-08-12T11:28:03;2.85;;;2.20;;
38379;SDS011;38377;47.418;18.882;2023-08-12T11:30:30;2.60;;;2.35;;
38379;SDS011;38377;47.418;18.882;2023-08-12T11:32:56;4.20;;;2.00;;
38379;SDS011;38377;47.418;18.882;2023-08-12T11:35:22;3.20;;;2.13;;
38379;SDS011;38377;47.418;18.882;2023-08-12T11:37:49;2.80;;;2.38;;
38379;SDS011;38377;47.418;18.882;2023-08-12T11:40:18;3.38;;;2.30;;
38379;SDS011;38377;47.418;18.882;2023-08-12T11:42:47;3.15;;;2.35;;
38379;SDS011;38377;47.418;18.882;2023-08-12T11:47:41;3.60;;;2.45;;
38379;SDS011;38377;47.418;18.882;2023-08-12T11:50:08;2.47;;;2.15;;
38379;SDS011;38377;47.418;18.882;2023-08-12T11:52:35;2.60;;;2.40;;
38379;SDS011;38377;47.418;18.882;2023-08-12T11:55:02;2.55;;;2.35;;
38379;SDS011;38377;47.418;18.882;2023-08-12T11:57:28;2.53;;;2.33;;
38379;SDS011;38377;47.418;18.882;2023-08-12T11:59:58;3.88;;;2.90;;
38379;SDS011;38377;47.418;18.882;2023-08-12T12:02:25;7.20;;;2.88;;
38379;SDS011;38377;47.418;18.882;2023-08-12T12:04:51;4.05;;;2.20;;
38379;SDS011;38377;47.418;18.882;2023-08-12T12:07:24;4.03;;;2.65;;
38379;SDS011;38377;47.418;18.882;2023-08-12T12:09:52;2.92;;;2.42;;
38379;SDS011;38377;47.418;18.882;2023-08-12T12:12:25;2.22;;;2.03;;
38379;SDS011;38377;47.418;18.882;2023-08-12T12:14:51;3.63;;;2.42;;
38379;SDS011;38377;47.418;18.882;2023-08-12T12:17:20;4.57;;;2.45;;
38379;SDS011;38377;47.418;18.882;2023-08-12T12:19:47;2.42;;;2.22;;
38379;SDS011;38377;47.418;18.882;2023-08-12T12:22:16;3.08;;;2.40;;
38379;SDS011;38377;47.418;18.882;2023-08-12T12:24:45;2.50;;;2.30;;
38379;SDS011;38377;47.418;18.882;2023-08-12T12:27:12;3.30;;;2.10;;
38379;SDS011;38377;47.418;18.882;2023-08-12T12:29:39;3.67;;;2.50;;
38379;SDS011;38377;47.418;18.882;2023-08-12T12:32:05;2.80;;;2.60;;
38379;SDS011;38377;47.418;18.882;2023-08-12T12:34:30;2.90;;;2.13;;
38379;SDS011;38377;47.418;18.882;2023-08-12T12:36:56;4.00;;;2.50;;
38379;SDS011;38377;47.418;18.882;2023-08-12T12:39:22;2.90;;;2.58;;
38379;SDS011;38377;47.418;18.882;2023-08-12T12:41:48;2.58;;;2.30;;
38379;SDS011;38377;47.418;18.882;2023-08-12T12:44:14;2.70;;;2.28;;
38379;SDS011;38377;47.418;18.882;2023-08-12T12:46:40;2.90;;;2.50;;
38379;SDS011;38377;47.418;18.882;2023-08-12T12:49:05;2.72;;;2.35;;
38379;SDS011;38377;47.418;18.882;2023-08-12T12:51:31;4.57;;;2.55;;
38379;SDS011;38377;47.418;18.882;2023-08-12T12:53:57;4.45;;;2.78;;
38379;SDS011;38377;47.418;18.882;2023-08-12T12:56:22;3.45;;;2.20;;
38379;SDS011;38377;47.418;18.882;2023-08-12T12:58:48;3.10;;;2.17;;
38379;SDS011;38377;47.418;18.882;2023-08-12T13:01:14;3.83;;;2.60;;
38379;SDS011;38377;47.418;18.882;2023-08-12T13:03:40;3.70;;;2.50;;
38379;SDS011;38377;47.418;18.882;2023-08-12T13:06:05;2.92;;;2.63;;
38379;SDS011;38377;47.418;18.882;2023-08-12T13:08:31;2.53;;;2.33;;
38379;SDS011;38377;47.418;18.882;2023-08-12T13:10:57;4.93;;;2.60;;
38379;SDS011;38377;47.418;18.882;2023-08-12T13:13:23;3.05;;;2.40;;
38379;SDS011;38377;47.418;18.882;2023-08-12T13:15:49;3.85;;;2.42;;
38379;SDS011;38377;47.418;18.882;2023-08-12T13:18:15;2.83;;;2.60;;
38379;SDS011;38377;47.418;18.882;2023-08-12T13:20:41;3.08;;;2.40;;
38379;SDS011;38377;47.418;18.882;2023-08-12T13:23:07;2.63;;;2.42;;
38379;SDS011;38377;47.418;18.882;2023-08-12T13:25:33;2.60;;;2.33;;
38379;SDS011;38377;47.418;18.882;2023-08-12T13:28:03;3.55;;;2.50;;
38379;SDS011;38377;47.418;18.882;2023-08-12T13:30:29;3.42;;;2.60;;
38379;SDS011;38377;47.418;18.882;2023-08-12T13:32:55;2.53;;;2.28;;
38379;SDS011;38377;47.418;18.882;2023-08-12T13:35:21;2.75;;;2.30;;
38379;SDS011;38377;47.418;18.882;2023-08-12T13:37:48;2.80;;;2.25;;
38379;SDS011;38377;47.418;18.882;2023-08-12T13:40:14;4.55;;;2.03;;
38379;SDS011;38377;47.418;18.882;2023-08-12T13:42:41;2.85;;;2.40;;
38379;SDS011;38377;47.418;18.882;2023-08-12T13:45:09;2.33;;;2.03;;
38379;SDS011;38377;47.418;18.882;2023-08-12T13:47:36;3.03;;;2.33;;
38379;SDS011;38377;47.418;18.882;2023-08-12T13:50:02;2.95;;;2.40;;
38379;SDS011;38377;47.418;18.882;2023-08-12T13:52:28;2.45;;;2.22;;
38379;SDS011;38377;47.418;18.882;2023-08-12T13:55:03;2.95;;;2.60;;
38379;SDS011;38377;47.418;18.882;2023-08-12T13:57:29;2.63;;;2.15;;
38379;SDS011;38377;47.418;18.882;2023-08-12T13:59:55;3.97;;;2.80;;
38379;SDS011;38377;47.418;18.882;2023-08-12T14:02:21;3.35;;;2.60;;
38379;SDS011;38377;47.418;18.882;2023-08-12T14:04:46;2.92;;;2.50;;
38379;SDS011;38377;47.418;18.882;2023-08-12T14:07:12;2.55;;;2.20;;
38379;SDS011;38377;47.418;18.882;2023-08-12T14:09:38;2.25;;;2.05;;
38379;SDS011;38377;47.418;18.882;2023-08-12T14:12:03;2.63;;;2.42;;
38379;SDS011;38377;47.418;18.882;2023-08-12T14:14:29;2.50;;;2.30;;
38379;SDS011;38377;47.418;18.882;2023-08-12T14:16:55;2.75;;;2.30;;
38379;SDS011;38377;47.418;18.882;2023-08-12T14:19:21;3.47;;;2.58;;
38379;SDS011;38377;47.418;18.882;2023-08-12T14:21:47;5.20;;;3.00;;
38379;SDS011;38377;47.418;18.882;2023-08-12T14:24:13;3.05;;;2.30;;
38379;SDS011;38377;47.418;18.882;2023-08-12T14:26:39;2.55;;;2.35;;
38379;SDS011;38377;47.418;18.882;2023-08-12T14:29:05;2.78;;;2.58;;
38379;SDS011;38377;47.418;18.882;2023-08-12T14:31:31;2.50;;;2.30;;
38379;SDS011;38377;47.418;18.882;2023-08-12T14:33:56;3.92;;;2.50;;
38379;SDS011;38377;47.418;18.882;2023-08-12T14:36:22;3.30;;;2.45;;
38379;SDS011;38377;47.418;18.882;2023-08-12T14:38:49;3.78;;;2.70;;
38379;SDS011;38377;47.418;18.882;2023-08-12T14:41:15;2.65;;;2.38;;
38379;SDS011;38377;47.418;18.882;2023-08-12T14:43:41;3.78;;;2.95;;
38379;SDS011;38377;47.418;18.882;2023-08-12T14:46:13;3.47;;;2.30;;
38379;SDS011;38377;47.418;18.882;2023-08-12T14:48:47;3.78;;;2.50;;
38379;SDS011;38377;47.418;18.882;2023-08-12T14:51:13;9.77;;;3.33;;
38379;SDS011;38377;47.418;18.882;2023-08-12T14:53:42;3.00;;;2.80;;